Time;durP1;ratioP1;P1;durP2;ratioP2;P2;SDS_P1;SDS_P2;PMS_P1;PMS_P2;Temp;Humidity;BMP_temperature;BMP_pressure;BME280_temperature;BME280_humidity;BME280_pressure;Samples;Min_cycle;Max_cycle;Signal;HPM_P1;HPM_P2
2021/03/27 00:01:39;;;;;;;;;;;;;;;4.68;100.00;100684.94;5074225;28;19928;-74
2021/03/27 00:04:12;;;;;;;;;;;;;;;4.65;100.00;100682.41;5074288;28;20304;-72
2021/03/27 00:06:41;;;;;;;;;;;;;;;4.72;100.00;100683.81;5074031;28;19931;-72
2021/03/27 00:09:12;;;;;;;;;;;;;;;4.98;100.00;100674.22;5073835;28;19931;-72
2021/03/27 00:11:41;;;;;;;;;;;;;;;5.05;100.00;100668.47;5074142;28;20015;-72
2021/03/27 00:14:09;;;;;;;;;;;;;;;5.14;100.00;100665.22;5074319;28;19932;-72
2021/03/27 00:16:36;;;;;;;;;;;;;;;5.16;100.00;100658.81;5074231;28;19924;-72
2021/03/27 00:19:04;;;;;;;;;;;;;;;5.18;100.00;100656.00;5074019;28;19925;-72
2021/03/27 00:21:34;;;;;;;;;;;;;;;5.22;100.00;100654.00;5073841;28;19929;-72
2021/03/27 00:24:02;;;;;;;;;;;;;;;5.33;100.00;100651.53;5073997;28;19932;-72
2021/03/27 00:26:31;;;;;;;;;;;;;;;5.31;100.00;100646.25;5069013;28;19924;-72
2021/03/27 00:29:00;;;;;;;;;;;;;;;5.29;100.00;100639.22;5072963;28;20394;-72
2021/03/27 00:31:29;;;;;;;;;;;;;;;5.32;100.00;100630.97;5073564;28;19925;-72
2021/03/27 00:33:56;;;;;;;;;;;;;;;5.35;100.00;100630.78;5073803;28;19970;-72
2021/03/27 00:36:23;;;;;;;;;;;;;;;5.44;100.00;100627.53;5073832;28;19935;-72
2021/03/27 00:38:53;;;;;;;;;;;;;;;5.50;100.00;100624.44;5073539;28;19954;-72
2021/03/27 00:41:22;;;;;;;;;;;;;;;5.57;100.00;100624.94;5073665;28;19924;-72
2021/03/27 00:43:50;;;;;;;;;;;;;;;5.52;100.00;100617.16;5073700;28;19928;-72
2021/03/27 00:46:17;;;;;;;;;;;;;;;5.55;100.00;100617.94;5073729;28;19925;-72
2021/03/27 00:48:46;;;;;;;;;;;;;;;5.52;100.00;100614.47;5073180;28;19925;-72
2021/03/27 00:51:14;;;;;;;;;;;;;;;5.49;100.00;100614.66;5073501;28;19924;-72
2021/03/27 00:53:43;;;;;;;;;;;;;;;5.42;100.00;100610.59;5055582;28;19932;-72
2021/03/27 00:56:12;;;;;;;;;;;;;;;5.33;100.00;100608.47;5055449;28;19924;-72
2021/03/27 00:58:41;;;;;;;;;;;;;;;5.29;100.00;100604.22;5055225;28;19931;-72
2021/03/27 01:01:09;;;;;;;;;;;;;;;5.23;100.00;100594.72;5055332;28;19924;-72
2021/03/27 01:03:57;;;;;;;;;;;;;;;5.22;100.00;100600.19;5021695;28;19924;-72
2021/03/27 01:06:44;;;;;;;;;;;;;;;5.16;100.00;100594.22;5073189;28;19931;-72
2021/03/27 01:09:35;;;;;;;;;;;;;;;5.14;100.00;100584.50;5031677;28;20041;-73
2021/03/27 01:12:27;;;;;;;;;;;;;;;5.08;100.00;100584.88;5072904;28;20020;-72
2021/03/27 01:14:59;;;;;;;;;;;;;;;5.09;100.00;100584.81;5073018;28;20321;-73
2021/03/27 01:17:29;;;;;;;;;;;;;;;5.05;100.00;100582.38;5055174;28;19929;-73
2021/03/27 01:19:56;;;;;;;;;;;;;;;5.10;100.00;100575.75;5072899;28;20374;-73
2021/03/27 01:22:23;;;;;;;;;;;;;;;5.14;100.00;100577.28;5072556;28;19924;-73
2021/03/27 01:24:49;;;;;;;;;;;;;;;5.13;100.00;100572.00;5055020;28;20325;-73
2021/03/27 01:27:17;;;;;;;;;;;;;;;5.19;100.00;100567.09;5072741;28;19963;-72
2021/03/27 01:29:48;;;;;;;;;;;;;;;5.26;100.00;100554.13;5072687;28;19929;-73
2021/03/27 01:32:17;;;;;;;;;;;;;;;5.25;100.00;100554.25;5072627;28;20395;-73
2021/03/27 01:34:44;;;;;;;;;;;;;;;5.26;100.00;100550.59;5072745;28;19932;-73
2021/03/27 01:37:12;;;;;;;;;;;;;;;5.29;100.00;100545.00;5072584;28;19932;-73
2021/03/27 01:39:43;;;;;;;;;;;;;;;5.25;100.00;100546.16;5072048;28;19924;-73
2021/03/27 01:42:13;;;;;;;;;;;;;;;5.20;100.00;100539.25;5072620;28;19931;-73
2021/03/27 01:44:45;;;;;;;;;;;;;;;5.15;100.00;100540.50;5072314;28;19925;-73
2021/03/27 01:47:15;;;;;;;;;;;;;;;5.02;100.00;100538.56;5072286;28;20421;-73
2021/03/27 01:49:50;;;;;;;;;;;;;;;4.85;100.00;100538.69;5072229;28;20382;-73
2021/03/27 01:52:23;;;;;;;;;;;;;;;4.67;100.00;100527.22;5072250;28;19982;-73
2021/03/27 01:54:51;;;;;;;;;;;;;;;4.63;100.00;100531.06;5072399;28;19925;-73
2021/03/27 01:57:21;;;;;;;;;;;;;;;4.52;100.00;100523.63;5054427;28;20385;-73
2021/03/27 01:59:49;;;;;;;;;;;;;;;4.41;100.00;100521.59;5071538;28;20424;-73
2021/03/27 02:02:19;;;;;;;;;;;;;;;4.30;100.00;100526.72;5072015;28;19955;-73
2021/03/27 02:04:48;;;;;;;;;;;;;;;4.26;100.00;100527.84;5072031;28;19928;-73
2021/03/27 02:07:18;;;;;;;;;;;;;;;4.44;100.00;100513.34;5071868;28;19965;-73
2021/03/27 02:09:47;;;;;;;;;;;;;;;4.47;100.00;100510.44;5071656;28;19931;-73
2021/03/27 02:12:25;;;;;;;;;;;;;;;4.33;100.00;100513.97;5054105;28;20345;-73
2021/03/27 02:14:53;;;;;;;;;;;;;;;4.43;100.00;100500.84;5053989;28;20305;-73
2021/03/27 02:17:21;;;;;;;;;;;;;;;4.38;100.00;100500.25;5071127;28;19978;-73
2021/03/27 02:20:12;;;;;;;;;;;;;;;4.38;100.00;100505.63;5071672;28;19933;-72
2021/03/27 02:22:41;;;;;;;;;;;;;;;4.28;100.00;100505.31;5071901;28;20448;-73
2021/03/27 02:25:16;;;;;;;;;;;;;;;4.19;100.00;100495.94;5071828;28;20310;-73
2021/03/27 02:27:44;;;;;;;;;;;;;;;4.12;100.00;100497.28;5071713;28;19925;-73
2021/03/27 02:30:13;;;;;;;;;;;;;;;4.03;100.00;100495.13;5071481;28;19932;-73
2021/03/27 02:32:43;;;;;;;;;;;;;;;4.02;100.00;100490.69;5071742;28;19931;-72
2021/03/27 02:35:13;;;;;;;;;;;;;;;4.01;100.00;100487.16;5071458;28;20002;-72
2021/03/27 02:37:42;;;;;;;;;;;;;;;3.92;100.00;100493.03;5071675;28;20293;-72
2021/03/27 02:40:09;;;;;;;;;;;;;;;3.88;100.00;100486.13;5071375;28;20026;-72
2021/03/27 02:42:39;;;;;;;;;;;;;;;3.90;100.00;100492.28;5071586;28;20440;-73
2021/03/27 02:45:08;;;;;;;;;;;;;;;3.90;100.00;100486.03;5071514;28;20295;-73
2021/03/27 02:47:40;;;;;;;;;;;;;;;3.87;100.00;100480.84;5071368;28;19928;-73
2021/03/27 02:50:17;;;;;;;;;;;;;;;3.86;100.00;100488.00;5071452;28;19924;-73
2021/03/27 02:52:53;;;;;;;;;;;;;;;4.01;100.00;100483.59;5071314;28;20032;-73
2021/03/27 02:55:25;;;;;;;;;;;;;;;4.18;100.00;100475.44;5071406;28;19924;-72
2021/03/27 02:57:55;;;;;;;;;;;;;;;4.34;100.00;100478.09;5071405;28;19970;-73
2021/03/27 03:00:23;;;;;;;;;;;;;;;4.57;100.00;100483.03;5071147;28;19924;-73
2021/03/27 03:02:53;;;;;;;;;;;;;;;4.64;100.00;100484.41;5071398;28;19931;-73
2021/03/27 03:05:21;;;;;;;;;;;;;;;4.81;100.00;100478.88;5071206;28;19932;-73
2021/03/27 03:07:51;;;;;;;;;;;;;;;4.96;100.00;100476.19;5071304;28;19935;-73
2021/03/27 03:10:19;;;;;;;;;;;;;;;5.09;100.00;100468.22;5052866;28;19932;-73
2021/03/27 03:12:55;;;;;;;;;;;;;;;5.20;100.00;100460.34;5071171;28;19925;-73
2021/03/27 03:15:24;;;;;;;;;;;;;;;5.27;100.00;100467.06;5071084;28;19925;-73
2021/03/27 03:17:54;;;;;;;;;;;;;;;5.32;100.00;100461.41;5071233;28;19925;-73
2021/03/27 03:20:27;;;;;;;;;;;;;;;5.48;100.00;100463.97;5070390;28;21411;-73
2021/03/27 03:22:57;;;;;;;;;;;;;;;5.59;100.00;100460.59;5071277;28;19925;-73
2021/03/27 03:25:24;;;;;;;;;;;;;;;5.71;100.00;100449.00;5071555;28;20773;-74
2021/03/27 03:27:57;;;;;;;;;;;;;;;5.92;100.00;100443.16;5073901;28;19979;-73
2021/03/27 03:30:26;;;;;;;;;;;;;;;6.02;100.00;100447.03;5075044;28;19935;-74
2021/03/27 03:33:07;;;;;;;;;;;;;;;6.11;100.00;100450.94;5075681;28;20321;-74
2021/03/27 03:35:41;;;;;;;;;;;;;;;6.16;100.00;100440.69;5072152;28;20009;-73
2021/03/27 03:38:15;;;;;;;;;;;;;;;6.18;100.00;100434.25;5075163;28;19925;-73
2021/03/27 03:40:48;;;;;;;;;;;;;;;6.20;100.00;100429.63;5075186;28;19924;-73
2021/03/27 03:43:24;;;;;;;;;;;;;;;6.20;100.00;100429.63;5075258;28;20361;-72
2021/03/27 03:46:04;;;;;;;;;;;;;;;6.20;100.00;100434.16;5075473;28;19975;-73
2021/03/27 03:48:38;;;;;;;;;;;;;;;6.22;100.00;100439.44;5074586;28;19928;-73
2021/03/27 03:51:08;;;;;;;;;;;;;;;6.22;100.00;100434.06;5056792;28;19931;-73
2021/03/27 03:53:38;;;;;;;;;;;;;;;6.20;100.00;100435.00;5074610;28;19931;-73
2021/03/27 03:56:12;;;;;;;;;;;;;;;6.22;100.00;100420.56;5074607;28;19924;-73
2021/03/27 03:58:49;;;;;;;;;;;;;;;6.22;100.00;100426.81;5074655;28;19974;-73
2021/03/27 04:01:19;;;;;;;;;;;;;;;6.24;100.00;100429.41;5074501;28;19928;-72
2021/03/27 04:03:53;;;;;;;;;;;;;;;6.23;100.00;100430.38;5074505;28;19993;-72
2021/03/27 04:06:22;;;;;;;;;;;;;;;6.23;100.00;100422.28;5074125;28;20455;-72
2021/03/27 04:08:52;;;;;;;;;;;;;;;6.20;100.00;100421.53;5074156;28;20057;-72
2021/03/27 04:11:35;;;;;;;;;;;;;;;6.23;100.00;100419.59;5074262;28;20405;-75
2021/03/27 04:14:03;;;;;;;;;;;;;;;6.25;100.00;100421.22;5074380;28;19928;-73
2021/03/27 04:16:29;;;;;;;;;;;;;;;6.24;100.00;100421.31;5074162;28;20275;-72
2021/03/27 04:18:59;;;;;;;;;;;;;;;6.24;100.00;100421.31;5074057;28;19940;-72
2021/03/27 04:21:31;;;;;;;;;;;;;;;6.24;100.00;100405.13;5073952;28;20309;-72
2021/03/27 04:24:00;;;;;;;;;;;;;;;6.23;100.00;100406.09;5074186;28;20026;-72
2021/03/27 04:26:35;;;;;;;;;;;;;;;6.27;100.00;100407.66;5073757;28;19924;-72
2021/03/27 04:29:13;;;;;;;;;;;;;;;6.30;100.00;100412.81;5055711;28;19936;-72
2021/03/27 04:31:42;;;;;;;;;;;;;;;6.28;100.00;100401.25;5073861;28;19978;-72
2021/03/27 04:34:10;;;;;;;;;;;;;;;6.28;100.00;100406.66;5073784;28;19931;-72
2021/03/27 04:36:39;;;;;;;;;;;;;;;6.25;100.00;100406.88;5073805;28;19936;-72
2021/03/27 04:39:10;;;;;;;;;;;;;;;6.24;100.00;100413.22;5072770;28;19935;-72
2021/03/27 04:41:40;;;;;;;;;;;;;;;6.19;100.00;100432.44;5073626;28;20415;-72
2021/03/27 04:44:09;;;;;;;;;;;;;;;6.12;100.00;100429.28;5073616;28;20580;-72
2021/03/27 04:46:45;;;;;;;;;;;;;;;6.06;100.00;100435.06;5073423;28;20053;-72
2021/03/27 04:49:16;;;;;;;;;;;;;;;5.96;100.00;100432.09;5073347;28;20374;-72
2021/03/27 04:51:48;;;;;;;;;;;;;;;5.91;100.00;100441.47;5055647;28;19924;-72
2021/03/27 04:54:32;;;;;;;;;;;;;;;5.84;100.00;100435.63;5073468;28;19931;-72
2021/03/27 04:57:05;;;;;;;;;;;;;;;5.73;100.00;100433.59;5073539;28;19928;-72
2021/03/27 04:59:45;;;;;;;;;;;;;;;5.62;100.00;100433.47;5073226;28;19932;-72
2021/03/27 05:02:13;;;;;;;;;;;;;;;5.51;100.00;100429.63;5073397;28;19932;-72
2021/03/27 05:04:45;;;;;;;;;;;;;;;5.37;100.00;100429.66;5073119;28;19978;-72
2021/03/27 05:07:13;;;;;;;;;;;;;;;5.23;100.00;100435.06;5073279;28;19928;-73
2021/03/27 05:09:45;;;;;;;;;;;;;;;5.06;100.00;100426.22;5072956;28;19994;-73
2021/03/27 05:12:13;;;;;;;;;;;;;;;4.96;100.00;100428.63;5072964;28;19924;-72
2021/03/27 05:14:45;;;;;;;;;;;;;;;4.85;100.00;100425.72;5073154;28;20456;-72
2021/03/27 05:17:15;;;;;;;;;;;;;;;4.76;100.00;100421.81;5073235;28;19924;-72
2021/03/27 05:19:43;;;;;;;;;;;;;;;4.71;100.00;100410.47;5072941;28;19928;-72
2021/03/27 05:22:24;;;;;;;;;;;;;;;4.60;100.00;100413.81;5072727;28;19925;-73
2021/03/27 05:25:16;;;;;;;;;;;;;;;4.59;100.00;100414.75;5072963;28;19974;-73
2021/03/27 05:27:45;;;;;;;;;;;;;;;4.65;100.00;100418.91;5025198;28;19931;-73
2021/03/27 05:30:31;;;;;;;;;;;;;;;4.73;100.00;100413.94;5067971;28;19973;-72
2021/03/27 05:33:12;;;;;;;;;;;;;;;4.92;100.00;100410.97;5072647;28;19925;-72
2021/03/27 05:35:41;;;;;;;;;;;;;;;5.20;100.00;100412.75;5052643;28;20302;-72
2021/03/27 05:38:14;;;;;;;;;;;;;;;5.46;100.00;100407.50;5052449;28;19925;-73
2021/03/27 05:41:13;;;;;;;;;;;;;;;5.93;100.00;100412.56;5052161;28;19925;-72
2021/03/27 05:43:57;;;;;;;;;;;;;;;6.56;100.00;100402.06;5010829;28;19932;-73
2021/03/27 05:46:43;;;;;;;;;;;;;;;7.07;100.00;100401.19;5011872;28;19968;-73
2021/03/27 05:49:16;;;;;;;;;;;;;;;7.23;100.00;100388.31;5045355;28;19924;-73
2021/03/27 05:52:01;;;;;;;;;;;;;;;7.54;100.00;100395.03;5058785;28;19924;-73
2021/03/27 05:54:44;;;;;;;;;;;;;;;7.61;100.00;100391.88;5054469;28;19924;-73
2021/03/27 05:57:17;;;;;;;;;;;;;;;7.62;100.00;100391.75;5059246;28;19932;-74
2021/03/27 06:00:01;;;;;;;;;;;;;;;7.53;100.00;100385.19;5064821;28;20008;-74
2021/03/27 06:02:40;;;;;;;;;;;;;;;7.53;100.00;100384.34;5067906;28;20627;-73
2021/03/27 06:05:29;;;;;;;;;;;;;;;7.58;100.00;100395.66;5082752;28;19960;-74
2021/03/27 06:08:01;;;;;;;;;;;;;;;7.65;100.00;100385.28;5052599;28;19947;-71
2021/03/27 06:10:37;;;;;;;;;;;;;;;7.73;100.00;100369.34;5052198;28;19935;-74
2021/03/27 06:13:22;;;;;;;;;;;;;;;7.81;100.00;100374.19;5039868;28;20409;-75
2021/03/27 06:16:11;;;;;;;;;;;;;;;7.82;100.00;100375.91;5054624;28;19925;-74
2021/03/27 06:18:54;;;;;;;;;;;;;;;7.86;100.00;100375.56;5053254;28;19932;-74
2021/03/27 06:21:25;;;;;;;;;;;;;;;7.89;100.00;100369.06;5053310;28;20398;-75
2021/03/27 06:23:56;;;;;;;;;;;;;;;7.97;100.00;100366.63;5052549;28;19969;-72
2021/03/27 06:26:43;;;;;;;;;;;;;;;8.09;100.00;100375.66;5071621;28;19925;-72
2021/03/27 06:29:28;;;;;;;;;;;;;;;8.35;100.00;100360.13;5048705;28;19948;-72
2021/03/27 06:32:06;;;;;;;;;;;;;;;8.62;100.00;100367.09;5051298;28;19929;-73
2021/03/27 06:34:44;;;;;;;;;;;;;;;8.56;100.00;100354.03;5033844;28;19960;-73
2021/03/27 06:37:37;;;;;;;;;;;;;;;8.61;100.00;100350.97;5052562;28;20386;-72
2021/03/27 06:40:16;;;;;;;;;;;;;;;8.82;100.00;100360.09;5038235;28;20354;-73
2021/03/27 06:42:51;;;;;;;;;;;;;;;9.06;100.00;100353.72;5063302;28;19925;-75
2021/03/27 06:45:45;;;;;;;;;;;;;;;9.57;100.00;100360.38;5069084;28;19925;-73
2021/03/27 06:48:30;;;;;;;;;;;;;;;10.29;100.00;100353.44;5047391;28;20003;-73
2021/03/27 06:51:20;;;;;;;;;;;;;;;10.67;100.00;100353.84;5066658;28;19928;-73
2021/03/27 06:54:06;;;;;;;;;;;;;;;11.17;100.00;100350.34;5041860;28;19954;-73
2021/03/27 06:56:34;;;;;;;;;;;;;;;11.81;100.00;100343.63;5055819;28;19925;-73
2021/03/27 06:59:07;;;;;;;;;;;;;;;12.41;100.00;100350.78;5060541;28;19931;-74
2021/03/27 07:01:57;;;;;;;;;;;;;;;12.47;100.00;100343.91;5035646;28;19929;-73
2021/03/27 07:04:44;;;;;;;;;;;;;;;12.49;100.00;100334.59;5052398;28;20343;-73
2021/03/27 07:07:43;;;;;;;;;;;;;;;12.81;100.00;100338.78;5044527;28;19924;-74
2021/03/27 07:10:30;;;;;;;;;;;;;;;12.85;100.00;100331.16;5071199;28;19924;-75
2021/03/27 07:13:16;;;;;;;;;;;;;;;13.54;100.00;100343.47;5071696;28;19928;-74
2021/03/27 07:15:48;;;;;;;;;;;;;;;14.28;100.00;100339.75;5071799;28;19955;-75
2021/03/27 07:18:34;;;;;;;;;;;;;;;14.42;100.00;100347.38;5067931;28;19924;-74
2021/03/27 07:21:06;;;;;;;;;;;;;;;13.76;100.00;100340.47;5056904;28;19931;-73
2021/03/27 07:23:39;;;;;;;;;;;;;;;12.95;100.00;100344.75;5052367;28;19932;-74
2021/03/27 07:26:23;;;;;;;;;;;;;;;12.30;100.00;100353.66;5051356;28;20289;-73
2021/03/27 07:29:03;;;;;;;;;;;;;;;11.67;100.00;100368.50;5050021;28;20349;-73
2021/03/27 07:31:46;;;;;;;;;;;;;;;11.13;100.00;100397.78;5031018;28;19978;-73
2021/03/27 07:34:30;;;;;;;;;;;;;;;10.65;100.00;100393.81;5050773;28;19924;-73
2021/03/27 07:37:10;;;;;;;;;;;;;;;10.40;100.00;100414.09;5064927;28;20279;-73
2021/03/27 07:39:38;;;;;;;;;;;;;;;10.19;100.00;100425.75;5068269;28;19947;-73
2021/03/27 07:42:14;;;;;;;;;;;;;;;9.80;100.00;100439.78;5067786;28;19924;-73
2021/03/27 07:44:47;;;;;;;;;;;;;;;9.36;100.00;100450.56;5061619;28;20356;-73
2021/03/27 07:47:30;;;;;;;;;;;;;;;9.03;100.00;100467.66;5069202;28;19924;-74
2021/03/27 07:50:13;;;;;;;;;;;;;;;8.62;100.00;100466.31;5050536;28;19933;-74
2021/03/27 07:52:43;;;;;;;;;;;;;;;8.35;100.00;100464.72;5051500;28;19964;-74
2021/03/27 07:55:27;;;;;;;;;;;;;;;8.18;100.00;100471.44;5066845;28;19932;-73
2021/03/27 07:57:57;;;;;;;;;;;;;;;8.10;100.00;100477.41;5064538;28;19932;-72
2021/03/27 08:00:35;;;;;;;;;;;;;;;8.03;100.00;100486.94;5078303;28;19932;-72
2021/03/27 08:03:26;;;;;;;;;;;;;;;8.01;100.00;100475.38;5080117;28;19931;-72
2021/03/27 08:06:04;;;;;;;;;;;;;;;7.99;100.00;100485.44;5054870;28;19939;-72
2021/03/27 08:08:45;;;;;;;;;;;;;;;7.99;100.00;100474.63;5056845;28;19932;-72
2021/03/27 08:11:19;;;;;;;;;;;;;;;7.97;100.00;100498.22;5051713;28;19970;-73
2021/03/27 08:13:56;;;;;;;;;;;;;;;7.97;100.00;100522.53;5070694;28;19932;-73
2021/03/27 08:16:37;;;;;;;;;;;;;;;7.94;100.00;100539.84;5081392;28;19932;-73
2021/03/27 08:19:21;;;;;;;;;;;;;;;7.87;100.00;100547.53;5081455;28;19932;-73
2021/03/27 08:21:56;;;;;;;;;;;;;;;7.81;100.00;100553.38;5086249;28;19928;-72
2021/03/27 08:24:37;;;;;;;;;;;;;;;7.79;100.00;100554.47;5070933;28;19932;-72
2021/03/27 08:27:18;;;;;;;;;;;;;;;7.74;100.00;100562.91;5089129;28;19967;-73
2021/03/27 08:30:03;;;;;;;;;;;;;;;7.73;100.00;100557.63;5053342;28;19925;-72
2021/03/27 08:33:00;;;;;;;;;;;;;;;7.70;100.00;100567.66;5063734;28;19933;-73
2021/03/27 08:35:37;;;;;;;;;;;;;;;7.67;100.00;100589.50;5094115;28;19932;-73
2021/03/27 08:38:17;;;;;;;;;;;;;;;7.42;100.00;100605.72;5093883;28;19932;-73
2021/03/27 08:40:47;;;;;;;;;;;;;;;7.08;100.00;100606.25;5093932;28;19964;-74
2021/03/27 08:43:20;;;;;;;;;;;;;;;6.88;100.00;100631.84;5093890;28;19928;-73
2021/03/27 08:46:05;;;;;;;;;;;;;;;6.67;100.00;100621.53;5094105;28;19928;-71
2021/03/27 08:48:48;;;;;;;;;;;;;;;6.45;100.00;100643.66;5084585;28;19924;-72
2021/03/27 08:51:19;;;;;;;;;;;;;;;6.32;100.00;100651.69;5074845;28;19939;-73
2021/03/27 08:54:05;;;;;;;;;;;;;;;6.25;100.00;100674.59;5073648;28;19929;-72
2021/03/27 08:56:57;;;;;;;;;;;;;;;6.02;100.00;100678.78;5055838;28;19924;-72
2021/03/27 08:59:33;;;;;;;;;;;;;;;5.98;100.00;100693.41;5073209;28;19959;-72
2021/03/27 09:02:07;;;;;;;;;;;;;;;5.83;100.00;100704.13;5073164;28;19998;-73
2021/03/27 09:04:37;;;;;;;;;;;;;;;5.80;100.00;100714.22;5073491;28;19932;-73
2021/03/27 09:07:15;;;;;;;;;;;;;;;5.65;100.00;100729.50;5073057;28;20340;-72
2021/03/27 09:09:56;;;;;;;;;;;;;;;5.56;100.00;100733.63;5073073;28;19924;-72
2021/03/27 09:12:38;;;;;;;;;;;;;;;5.47;100.00;100739.56;5070070;28;19963;-72
2021/03/27 09:15:16;;;;;;;;;;;;;;;5.39;100.00;100748.09;5073377;28;19924;-72
2021/03/27 09:17:57;;;;;;;;;;;;;;;5.29;100.00;100754.97;5073234;28;20294;-72
2021/03/27 09:20:42;;;;;;;;;;;;;;;5.16;100.00;100771.84;5055950;28;19933;-72
2021/03/27 09:23:26;;;;;;;;;;;;;;;5.01;100.00;100770.00;5073279;28;19931;-74
2021/03/27 09:26:11;;;;;;;;;;;;;;;4.98;100.00;100783.66;5072619;28;20013;-71
2021/03/27 09:28:41;;;;;;;;;;;;;;;4.97;100.00;100801.63;5072631;28;20019;-73
2021/03/27 09:31:37;;;;;;;;;;;;;;;4.96;100.00;100801.72;5072907;28;19931;-72
2021/03/27 09:34:08;;;;;;;;;;;;;;;4.99;100.00;100799.69;5072943;28;19924;-71
2021/03/27 09:36:40;;;;;;;;;;;;;;;4.93;100.00;100813.50;5072956;28;20336;-72
2021/03/27 09:39:12;;;;;;;;;;;;;;;4.91;100.00;100811.88;5072407;28;19935;-72
2021/03/27 09:41:49;;;;;;;;;;;;;;;4.89;100.00;100811.97;5072787;28;20301;-72
2021/03/27 09:44:25;;;;;;;;;;;;;;;4.92;100.00;100797.44;5072474;28;19931;-72
2021/03/27 09:46:59;;;;;;;;;;;;;;;4.96;100.00;100818.72;5072600;28;19924;-72
2021/03/27 09:49:30;;;;;;;;;;;;;;;4.99;100.00;100821.22;5072439;28;19966;-72
2021/03/27 09:52:11;;;;;;;;;;;;;;;5.04;100.00;100826.34;5072447;28;19928;-72
2021/03/27 09:54:40;;;;;;;;;;;;;;;5.14;100.00;100835.63;5072444;28;19924;-72
2021/03/27 09:57:12;;;;;;;;;;;;;;;5.13;100.00;100842.00;5072406;28;19936;-72
2021/03/27 09:59:42;;;;;;;;;;;;;;;5.13;100.00;100844.69;5071682;28;19966;-72
2021/03/27 10:02:18;;;;;;;;;;;;;;;5.16;100.00;100844.50;5072202;28;19985;-71
2021/03/27 10:04:49;;;;;;;;;;;;;;;5.29;100.00;100844.69;5071851;28;20404;-71
2021/03/27 10:07:20;;;;;;;;;;;;;;;5.52;100.00;100845.19;5072403;28;19928;-72
2021/03/27 10:10:01;;;;;;;;;;;;;;;5.74;100.00;100854.69;5071964;28;19935;-72
2021/03/27 10:12:29;;;;;;;;;;;;;;;5.86;100.00;100854.81;5072138;28;19977;-72
2021/03/27 10:15:00;;;;;;;;;;;;;;;5.88;100.00;100854.75;5071996;28;19925;-72
2021/03/27 10:17:31;;;;;;;;;;;;;;;5.92;100.00;100855.41;5071841;28;19928;-72
2021/03/27 10:20:01;;;;;;;;;;;;;;;5.82;100.00;100850.56;5053690;28;20382;-72
2021/03/27 10:22:30;;;;;;;;;;;;;;;5.72;100.00;100854.78;5071831;28;19931;-72
2021/03/27 10:24:58;;;;;;;;;;;;;;;5.71;100.00;100863.81;5071708;28;19936;-72
2021/03/27 10:27:31;;;;;;;;;;;;;;;5.75;100.00;100865.38;5071370;28;19932;-72
2021/03/27 10:30:02;;;;;;;;;;;;;;;5.75;100.00;100881.53;5071959;28;19932;-71
2021/03/27 10:32:58;;;;;;;;;;;;;;;6.22;100.00;100866.19;5075263;28;19932;-71
2021/03/27 10:35:57;;;;;;;;;;;;;;;6.95;100.00;100861.69;5077122;28;20467;-70
2021/03/27 10:38:33;;;;;;;;;;;;;;;7.06;100.00;100870.00;5080643;28;19924;-71
2021/03/27 10:41:01;;;;;;;;;;;;;;;7.22;100.00;100863.63;5079770;28;19934;-71
2021/03/27 10:43:45;;;;;;;;;;;;;;;7.94;100.00;100863.38;5080780;28;19976;-70
2021/03/27 10:46:17;;;;;;;;;;;;;;;8.76;100.00;100855.84;5079611;28;19924;-70
2021/03/27 10:48:57;;;;;;;;;;;;;;;9.37;100.00;100857.78;5079389;28;20274;-70
2021/03/27 10:51:35;;;;;;;;;;;;;;;9.84;100.00;100853.34;5079969;28;20420;-70
2021/03/27 10:54:17;;;;;;;;;;;;;;;9.48;100.00;100851.56;5080729;28;19924;-71
2021/03/27 10:56:57;;;;;;;;;;;;;;;9.78;100.00;100852.94;5080561;28;19936;-70
2021/03/27 10:59:32;;;;;;;;;;;;;;;9.64;100.00;100863.00;5080248;28;19932;-70
2021/03/27 11:02:35;;;;;;;;;;;;;;;8.90;100.00;100881.06;5080079;28;19925;-70
2021/03/27 11:05:19;;;;;;;;;;;;;;;7.89;100.00;100896.09;5081575;28;20009;-70
2021/03/27 11:08:04;;;;;;;;;;;;;;;6.53;100.00;100913.75;5061030;28;19928;-71
2021/03/27 11:10:52;;;;;;;;;;;;;;;5.98;100.00;100906.28;5080321;28;19928;-71
2021/03/27 11:13:29;;;;;;;;;;;;;;;5.81;100.00;100901.84;5080509;28;19958;-71
2021/03/27 11:16:10;;;;;;;;;;;;;;;5.99;100.00;100916.09;5077663;28;20394;-70
2021/03/27 11:18:53;;;;;;;;;;;;;;;6.17;100.00;100908.75;5078082;28;19959;-71
2021/03/27 11:21:37;;;;;;;;;;;;;;;6.60;100.00;100930.44;5080774;28;20428;-71
2021/03/27 11:24:11;;;;;;;;;;;;;;;7.94;100.00;100909.31;5079583;28;19924;-71
2021/03/27 11:26:41;;;;;;;;;;;;;;;8.61;100.00;100911.94;5079062;28;19924;-70
2021/03/27 11:29:27;;;;;;;;;;;;;;;9.02;100.00;100918.97;5078936;28;20270;-70
2021/03/27 11:31:54;;;;;;;;;;;;;;;9.14;100.00;100910.94;5078313;28;20476;-70
2021/03/27 11:34:26;;;;;;;;;;;;;;;9.43;100.00;100932.34;5079420;28;19929;-70
2021/03/27 11:36:56;;;;;;;;;;;;;;;9.74;100.00;100921.94;5074382;28;20348;-70
2021/03/27 11:39:27;;;;;;;;;;;;;;;10.00;100.00;100933.53;5070317;28;20001;-70
2021/03/27 11:42:08;;;;;;;;;;;;;;;9.91;100.00;100923.38;5068123;28;19931;-70
2021/03/27 11:44:46;;;;;;;;;;;;;;;10.42;100.00;100927.69;5068121;28;20797;-70
2021/03/27 11:47:28;;;;;;;10.43;2.78;;;;;;;10.65;100.00;100920.47;5052318;28;20454;-70
2021/03/27 11:49:58;;;;;;;;;;;;;;;10.80;100.00;100930.13;5053189;28;20422;-70
2021/03/27 11:52:28;;;;;;;;;;;;;;;10.84;100.00;100934.31;5072753;28;19920;-70
2021/03/27 11:55:00;;;;;;;;;;;;;;;10.85;100.00;100941.50;5074584;28;19920;-70
2021/03/27 11:57:30;;;;;;;;;;;;;;;10.82;100.00;100928.16;5055397;28;20446;-70
2021/03/27 12:02:51;;;;;;;;;;;;;;;10.11;100.00;100941.72;5054385;28;19929;-70
2021/03/27 12:05:23;;;;;;;;;;;;;;;10.54;100.00;100924.91;5064408;28;20008;-70
2021/03/27 12:07:53;;;;;;;;;;;;;;;10.08;100.00;100922.97;5054374;28;19928;-70
2021/03/27 12:10:23;;;;;;;;;;;;;;;9.93;100.00;100930.44;5070736;28;19924;-70
2021/03/27 12:12:52;;;;;;;;;;;;;;;9.98;100.00;100935.50;5054117;28;20340;-69
2021/03/27 12:15:26;;;;;;;;;;;;;;;10.44;100.00;100923.88;5071357;28;19932;-70
2021/03/27 12:17:58;;;;;;;;;;;;;;;10.16;100.00;100930.53;5074200;28;19926;-70
2021/03/27 12:20:31;;;;;;;;;;;;;;;10.68;100.00;100934.66;5072428;28;19970;-70
2021/03/27 12:23:01;;;;;;;;;;;;;;;11.41;100.00;100904.44;5074147;28;19932;-70
2021/03/27 12:25:34;;;;;;;;;;;;;;;12.48;99.74;100901.84;5055720;28;20007;-70
2021/03/27 12:28:04;;;;;;;;;;;;;;;13.39;85.00;100898.47;5053799;28;20356;-70
2021/03/27 12:30:34;;;;;;;;;;;;;;;13.81;68.70;100892.78;5069206;28;19932;-71
2021/03/27 12:33:06;;;;;;;;;;;;;;;13.36;65.95;100893.25;5053877;28;19990;-71
2021/03/27 12:35:36;;;;;;;;;;;;;;;13.61;67.69;100899.22;5070739;28;19931;-71
2021/03/27 12:38:18;;;;;;;;;;;;;;;13.55;66.78;100904.25;5063656;28;20011;-71
2021/03/27 12:40:51;;;;;;;;;;;;;;;13.93;59.81;100898.13;5072267;28;20449;-71
2021/03/27 12:43:19;;;;;;;;;;;;;;;13.87;57.47;100913.22;5073382;28;19989;-71
2021/03/27 12:45:47;;;;;;;;;;;;;;;13.10;59.37;100910.06;5046051;28;19983;-71
2021/03/27 12:48:24;;;;;;;;;;;;;;;12.51;60.64;100912.47;5063473;28;20002;-71
2021/03/27 12:50:56;;;;;;;;;;;;;;;13.01;60.62;100933.53;5062721;28;19925;-71
2021/03/27 12:53:41;;;;;;;;;;;;;;;12.36;61.37;100930.16;5061195;28;19964;-71
2021/03/27 12:56:17;;;;;;;;;;;;;;;10.94;69.41;100931.72;5068566;28;19940;-71
2021/03/27 12:58:46;;;;;;;;;;;;;;;10.48;76.99;100922.66;5080349;28;19933;-71
2021/03/27 13:01:21;;;;;;;;;;;;;;;10.28;81.07;100937.72;5079682;28;19986;-71
2021/03/27 13:04:02;;;;;;;;;;;;;;;9.98;80.38;100936.38;5080689;28;20281;-71
2021/03/27 13:06:40;;;;;;;;;;;;;;;9.65;86.42;100929.78;5079425;28;19928;-71
2021/03/27 13:09:25;;;;;;;;;;;;;;;9.46;93.98;100960.09;5079936;28;19932;-72
2021/03/27 13:11:54;;;;;;;;;;;;;;;9.10;100.00;100983.44;5081204;28;19924;-71
2021/03/27 13:14:41;;;;;;;;;;;;;;;8.05;100.00;100979.72;5062248;28;19924;-71
2021/03/27 13:17:13;;;;;;;;;;;;;;;7.42;100.00;101000.91;5046123;28;19927;-71
2021/03/27 13:19:42;;;;;;;;;;;;;;;7.15;100.00;101000.84;5063443;28;19929;-72